Create Custom Reports and Graphics: Custom Report

Bell Hill-West

Current Conditions

5/17/22 7:45 PM (-07:00)
Updated Every 15 Minutes
Temp 69.7 °F   6.1
RH 38 %   13
Dew Pt 43.3 °F   1.9
Wet Bulb 54.7 °F   1.1
Wind Dir SW | 223 °
Wind Spd 6.1 mph   0.5
Wind Gust 11.8 mph   0.0
Solar Rad 92 W/m2   16
BatVolt 13.2 V   0.0

Today & Yesterday

Bell Hill-West

5/17/22 7:45 PM (-07:00)
Updated Every 15 Minutes
Daily Max Temp 80.5 °F   6.5
Time of Max Temp 1450
Daily Min Temp 40.8 °F   2.0
Time of Min Temp 0606
Daily Max Wind 18.2 mph   1.4
Time of Max Wind 1539
Max Wind Dir SSW | 212 °
Daily Rain 0.00 In
Daily ETo 0.247 in   0.030
Yest MaxT 74.0 °F
Yest MinT 42.8 °F
Yest MaxGst 16.8 mph
Yest Rain 0.00 In
Yest ETo 0.22 In

Last 48 Hours

Bell Hill-West

Hourly Data | America/Los_Angeles
as of 5/17/22 7:58 PM PDT
Date & Time Temp (°F) WindChill (°F) RH (%) Dew Pt (°F) Wet Bulb (°F) Wind Dir (°) Wind Spd (mph) Wind Gust (mph) Wind Gst Dir (°) Solar Rad (W/m2) Latest Rain (In) Daily Rain (In) Daily Min Temp (°F) Daily Max Temp (°F) Daily ETo (in)
5/17/22 - 1900 74.9 - 32 42.7 55.9 SW | 232 6.9 14.5 WSW | 248 292 0.00 0.00 40.8 80.5 0.247
5/17/22 - 1800 77.5 - 27 40.7 55.8 SW | 235 7.4 16.5 SW | 232 514 0.00 0.00 40.8 80.5 0.236
5/17/22 - 1700 78.2 - 27 41.1 56.2 WSW | 238 7.3 15.2 SSW | 206 723 0.00 0.00 40.8 80.5 0.219
5/17/22 - 1600 79.1 - 24 38.8 55.5 SW | 229 9.6 18.2 SSW | 212 899 0.00 0.00 40.8 80.5 0.196
5/17/22 - 1500 79.5 - 22 36.8 54.9 SW | 228 7.5 13.8 WSW | 240 1,020 0.00 0.00 40.8 80.5 0.167
5/17/22 - 1400 78.0 - 27 40.8 56.1 WSW | 239 5.6 12.8 SSE | 158 1,068 0.00 0.00 40.8 79.5 0.136
5/17/22 - 1300 75.7 - 32 43.9 56.7 W | 270 4.7 10.8 WSW | 241 1,059 0.00 0.00 40.8 77.4 0.105
5/17/22 - 1200 71.6 - 37 43.9 55.5 N | 351 3.2 7.8 NE | 44 992 0.00 0.00 40.8 73.6 0.075
5/17/22 - 1100 66.5 - 45 44.5 54.3 NNE | 19 2.3 7.4 NNE | 27 861 0.00 0.00 40.8 69.2 0.049
5/17/22 - 1000 61.0 - 59 46.6 53.4 NNW | 345 1.6 5.4 NNW | 339 682 0.00 0.00 40.8 63.3 0.028
5/17/22 - 0900 56.4 - 66 45.4 51.0 N | 11 0.9 4.4 NNE | 14 478 0.00 0.00 40.8 59.0 0.013
5/17/22 - 0800 49.8 - 80 43.9 47.2 S | 175 1.4 5.1 NNE | 29 262 0.00 0.00 40.8 54.4 0.004
5/17/22 - 0700 41.8 - 95 40.4 41.4 S | 188 1.9 3.1 SSW | 198 52 0.00 0.00 40.8 45.9 0.000
5/17/22 - 0600 41.2 - 94 39.4 40.6 S | 188 2.3 3.8 SSW | 196 1 0.00 0.00 40.8 45.9 0.000
5/17/22 - 0500 41.8 - 92 39.7 41.1 S | 187 2.0 3.8 S | 182 0 0.00 0.00 41.5 45.9 0.000
5/17/22 - 0400 42.5 - 90 39.8 41.5 S | 186 3.0 4.4 S | 188 0 0.00 0.00 41.8 45.9 0.000
5/17/22 - 0300 43.7 - 88 40.4 42.4 S | 185 2.2 4.4 S | 184 0 0.00 0.00 42.6 45.9 0.000
5/17/22 - 0200 44.6 - 89 41.5 43.5 SSW | 195 1.5 3.4 SSW | 203 0 0.00 0.00 43.8 45.9 0.000
5/17/22 - 0100 47.0 - 85 42.7 45.3 SSW | 202 0.8 3.4 SW | 218 0 0.00 0.00 42.8 74.0 0.222
5/17/22 - 0000 51.0 - 78 44.2 48.0 S | 180 0.8 3.4 SSE | 149 0 0.00 0.00 42.8 74.0 0.222
5/16/22 - 2300 53.8 - 72 44.9 49.6 SSW | 193 1.0 6.4 S | 187 0 0.00 0.00 42.8 74.0 0.222
5/16/22 - 2200 56.5 - 66 45.2 50.9 SW | 218 4.9 12.1 SW | 234 0 0.00 0.00 42.8 74.0 0.222
5/16/22 - 2100 59.5 - 59 45.0 52.0 SW | 224 6.5 12.5 WSW | 244 4 0.00 0.00 42.8 74.0 0.222
5/16/22 - 2000 64.2 - 50 45.4 53.9 SW | 228 6.3 11.8 SW | 232 101 0.00 0.00 42.8 74.0 0.220
5/16/22 - 1900 68.8 - 44 45.8 55.6 SW | 230 7.5 13.5 WSW | 255 301 0.00 0.00 42.8 74.0 0.217
5/16/22 - 1800 71.2 - 39 44.8 55.9 SW | 224 9.0 16.8 SW | 232 515 0.00 0.00 42.8 74.0 0.207
5/16/22 - 1700 72.1 - 39 45.9 56.6 SW | 227 8.7 16.5 SW | 235 723 0.00 0.00 42.8 74.0 0.191
5/16/22 - 1600 72.9 - 36 44.0 56.0 SW | 227 9.2 16.8 WSW | 244 840 0.00 0.00 42.8 74.0 0.171
5/16/22 - 1500 72.9 - 35 43.3 55.6 SW | 229 8.2 15.5 WSW | 239 1,028 0.00 0.00 42.8 74.0 0.146
5/16/22 - 1400 70.2 - 37 43.0 54.7 SW | 224 7.6 15.5 SW | 223 754 0.00 0.00 42.8 72.4 0.118
5/16/22 - 1300 69.3 - 43 46.2 56.0 SW | 219 8.5 15.8 SSW | 213 811 0.00 0.00 42.8 70.5 0.096
5/16/22 - 1200 68.1 - 47 47.2 56.1 SW | 217 8.3 15.2 SW | 235 985 0.00 0.00 42.8 69.7 0.074
5/16/22 - 1100 65.3 - 52 47.3 55.3 SW | 233 5.5 12.5 SW | 223 849 0.00 0.00 42.8 67.3 0.050
5/16/22 - 1000 61.0 - 58 46.3 53.3 NNE | 21 2.2 8.1 NNE | 23 690 0.00 0.00 42.8 63.3 0.029
5/16/22 - 0900 58.2 - 65 46.3 52.2 NE | 54 1.3 5.4 NE | 50 486 0.00 0.00 42.8 59.2 0.014
5/16/22 - 0800 53.1 - 77 45.9 49.8 SSE | 152 0.1 2.7 W | 280 268 0.00 0.00 42.8 56.8 0.004
5/16/22 - 0700 45.7 - 91 43.2 44.9 S | 174 0.3 2.7 S | 174 60 0.00 0.00 42.8 51.2 0.000
5/16/22 - 0600 45.1 - 92 42.8 44.4 S | 189 0.9 5.8 WSW | 238 1 0.00 0.00 42.8 51.2 0.000
5/16/22 - 0500 44.0 - 88 40.9 42.8 S | 180 0.5 3.1 S | 170 0 0.00 0.00 42.8 51.2 0.000
5/16/22 - 0400 48.6 - 80 42.8 46.1 ESE | 122 0.4 5.4 S | 183 0 0.00 0.00 45.8 51.2 0.000
5/16/22 - 0300 49.7 49.3 78 43.0 46.8 SSW | 212 3.0 9.8 SSE | 154 0 0.00 0.00 47.1 51.0 0.000
5/16/22 - 0200 49.2 - 75 41.6 45.8 SSE | 167 0.9 5.8 SSW | 204 0 0.00 0.00 47.2 50.3 0.000
5/16/22 - 0100 51.0 - 64 39.4 45.6 S | 185 1.9 8.8 SW | 230 0 0.00 0.00 47.8 76.8 0.223
5/16/22 - 0000 53.5 - 54 37.4 45.9 SSW | 194 3.4 8.4 SW | 220 0 0.00 0.00 47.8 76.8 0.223
5/15/22 - 2300 55.7 - 49 36.8 46.6 S | 182 4.0 9.1 SSE | 168 0 0.00 0.00 47.8 76.8 0.222
5/15/22 - 2200 58.4 - 45 36.9 47.8 S | 179 3.1 9.5 S | 189 0 0.00 0.00 47.8 76.8 0.221
5/15/22 - 2100 61.2 - 44 38.9 49.8 SW | 225 4.0 12.5 WSW | 254 4 0.00 0.00 47.8 76.8 0.221
5/15/22 - 2000 66.9 - 40 41.9 53.1 SW | 226 5.5 13.5 SW | 234 123 0.00 0.00 47.8 76.8 0.220
5/15/22 - 1900 69.2 - 39 43.3 54.5 SW | 231 6.2 13.5 SW | 232 296 0.00 0.00 47.8 76.8 0.215
Max 79.5 - 95 47.3 56.7 - 9.6 18.2 - 1,068 0.00 0.00 47.8 80.5 0.247
Avg 59.9 - 58 42.7 50.5 - 4.1 9.5 - 362 0.00 - - - -
Min 41.2 - 22 36.8 40.6 - 0.1 2.7 - 0 0.00 0.00 40.8 45.9 0.000
Total - - - - - - - - - - 0.00 - - - -

Last 30 Days

Bell Hill-West

Daily Data | America/Los_Angeles
as of 5/17/22 7:58 PM PDT
Date Daily Max Temp (°F) Time of Max Temp Daily Min Temp (°F) Time of Min Temp Daily Rain (In) Monthly Rain (In) Seasonal Rainfall (In) Wind Spd (mph) Daily Max Wind (mph) Time of Max Wind Max Wind Dir (°) Daily ETo (in) 7 Day ETo (in) Daily Solar Rad (Cal/cm2) Dew Pt (°F) Max RH (%) Min RH (%) Hrs 70-85F (hrs) Hrs > 95F (hrs) Powdery Mildew Stress (pts) GDDs (DL) GDDs (Mx/Mn) Seas GDDs (DL) Seas GDDs (Smpl) Hrs <= 32F (hrs) Hrs <= 28F (hrs) Chilling <=45F (hrs) Chill Hrs 32-45F (hrs) Utah Chilling (Units) Degree Hrs (hrs) Max 1 Min Rain (In) Max 1 Min Rain Time Max 15 Min Rain (In) Max 15 Min Precip Time Max 60 Min Rain (In) Max 60 Min Rain Time MinBV Day (V)
5/16/22 74.0 1427 42.8 0457 0.00 0.31 20.00 4.3 16.8 1547 WSW | 244 0.222 1.38 724 44.5 94 29 4.81 0.00 30 10.0 8.4 265 174 0.0 0.0 1.4 1.4 2.0 45.7 - - - - - - 12.6
5/15/22 76.8 1440 47.8 0621 0.00 0.31 20.00 4.6 16.8 1306 SSW | 210 0.223 1.29 693 47.2 98 30 8.07 0.00 40 12.4 12.3 255 166 0.0 0.0 0.0 0.0 1.0 77.7 - - - - - - 12.6
5/14/22 82.5 1632 42.9 0600 0.00 0.31 20.00 3.3 14.8 1710 SW | 236 0.243 1.18 753 46.5 100 18 9.16 0.00 20 14.5 12.7 243 153 0.0 0.0 2.6 2.6 0.0 122.5 - - - - - - 12.6
5/13/22 72.4 1533 39.1 0546 0.00 0.31 20.00 3.3 17.2 1438 NW | 309 0.202 1.12 703 46.1 98 41 5.29 0.00 0 9.8 5.7 228 141 0.0 0.0 6.2 6.2 1.0 42.1 - - - - - - 12.6
5/12/22 63.9 1552 35.6 0613 0.00 0.31 20.00 3.2 16.5 1620 SSW | 199 0.166 1.04 646 38.2 97 35 0.00 0.00 0 4.2 0.0 219 135 0.0 0.0 7.9 7.9 3.5 0.0 - - - - - - 12.6
5/11/22 63.1 1458 31.8 0629 0.00 0.31 20.00 4.1 19.2 1152 S | 190 0.194 1.00 769 36.4 100 30 0.00 0.00 0 3.6 0.0 214 135 0.7 0.0 10.0 9.2 5.0 0.0 - - - - - - 12.6
5/10/22 57.4 1458 30.6 0524 0.15 0.31 20.00 2.9 20.2 1500 SW | 236 0.133 1.06 584 34.1 100 29 0.00 0.00 0 0.8 0.0 211 135 3.0 0.0 15.9 12.9 9.0 0.0 0.01 1658 0.08 1625 0.15 1707 12.5
5/9/22 54.7 1336 35.4 0024 0.03 0.16 19.85 4.5 22.5 1414 SSW | 213 0.127 1.13 574 35.0 94 35 0.00 0.00 0 0.2 0.0 210 135 0.0 0.0 14.4 14.4 20.5 0.0 0.01 1659 0.02 1705 0.03 1726 12.5
5/8/22 52.4 1652 34.6 0626 0.13 0.13 19.82 5.7 23.9 1137 SW | 225 0.116 1.18 587 36.0 91 48 0.00 0.00 0 0.1 0.0 210 135 0.0 0.0 15.2 15.2 21.0 0.0 0.01 2004 0.06 1726 0.07 1809 12.6
5/7/22 64.0 1447 43.1 2338 0.00 0.00 19.69 5.2 20.2 1530 WSW | 256 0.182 1.27 690 40.5 91 33 0.00 0.00 10 4.3 3.6 210 135 0.0 0.0 2.5 2.5 4.5 0.0 - - - - - - 12.6
5/6/22 65.2 1538 48.6 2347 0.00 0.00 19.69 5.1 19.8 1556 S | 176 0.124 1.26 438 49.3 90 47 0.00 0.00 20 7.1 6.9 206 131 0.0 0.0 0.0 0.0 2.0 0.0 - - - - - - 12.6
5/5/22 67.0 1246 49.4 0139 0.00 0.00 19.69 4.9 15.5 1253 WSW | 239 0.129 1.33 381 43.5 90 29 0.00 0.00 30 8.1 8.2 198 124 0.0 0.0 0.0 0.0 0.0 0.9 - - - - - - 12.6
5/4/22 83.1 1525 41.2 0611 0.00 0.00 19.69 3.5 21.9 1532 SW | 215 0.247 1.38 732 39.1 93 14 9.97 0.00 40 14.7 12.1 190 116 0.0 0.0 4.2 4.2 0.5 141.4 - - - - - - 12.6
5/3/22 79.2 1726 33.4 0630 0.00 0.00 19.69 2.4 9.5 1352 N | 9 0.207 1.32 734 35.0 95 14 6.42 0.00 20 10.0 6.3 176 104 0.0 0.0 7.0 7.0 1.5 68.0 - - - - - - 12.6
5/2/22 62.5 1410 37.2 0101 0.00 0.00 19.69 5.5 20.2 1417 WSW | 241 0.173 1.31 644 37.1 85 32 0.00 0.00 0 3.8 0.0 166 98 0.0 0.0 4.0 4.0 4.5 0.0 - - - - - - 12.6
5/1/22 77.0 1652 35.5 0552 0.00 0.00 19.69 2.7 13.8 1741 SSW | 212 0.210 1.34 726 36.4 100 13 5.85 0.00 0 9.2 6.3 162 98 0.0 0.0 7.3 7.3 2.5 56.7 - - - - - - 12.6
4/30/22 66.5 1327 43.6 0101 0.00 2.00 19.69 5.3 22.2 1521 SSW | 210 0.168 1.34 615 43.9 93 45 0.00 0.00 0 6.2 5.1 153 91 0.0 0.0 3.7 3.7 4.5 0.0 - - - - - - 12.6
4/29/22 70.9 1548 34.3 0615 0.00 2.00 19.69 3.4 16.8 1647 W | 263 0.199 1.36 690 34.8 99 12 0.39 0.00 0 7.0 2.6 146 86 0.0 0.0 7.2 7.2 2.5 17.8 - - - - - - 12.6
4/28/22 64.0 1636 36.6 0619 0.00 2.00 19.69 5.0 23.5 1735 NW | 324 0.177 1.28 685 35.7 87 29 0.00 0.00 0 3.8 0.3 140 84 0.0 0.0 9.0 9.0 4.5 0.0 - - - - - - 12.6
4/27/22 67.7 1520 34.9 0632 0.00 2.00 19.69 3.9 16.8 1833 S | 186 0.189 1.20 674 36.8 100 24 0.00 0.00 0 5.0 1.3 136 83 0.0 0.0 9.3 9.3 5.0 3.6 - - - - - - 12.6
4/26/22 68.4 1538 44.5 0046 0.00 2.00 19.69 4.6 17.5 1441 SW | 217 0.197 1.09 700 40.3 82 30 0.00 0.00 0 5.9 6.4 131 82 0.0 0.0 0.7 0.7 4.0 7.5 - - - - - - 12.6
4/25/22 73.2 1503 41.8 0223 0.00 2.00 19.69 4.6 15.8 1307 SW | 225 0.204 1.00 656 40.4 88 25 4.73 0.00 10 8.6 7.5 125 76 0.0 0.0 6.3 6.3 2.0 37.4 - - - - - - 12.6
4/24/22 75.9 1538 37.9 0630 0.00 2.00 19.69 3.2 16.5 1306 WSW | 256 0.206 0.89 682 39.3 100 18 6.46 0.00 20 9.6 6.9 116 68 0.0 0.0 7.0 7.0 2.0 57.3 - - - - - - 12.6
4/23/22 70.1 1652 35.4 0620 0.00 2.00 19.69 2.5 14.8 1820 NW | 320 0.184 0.87 683 38.8 100 24 0.02 0.00 0 6.6 2.7 107 61 0.0 0.0 7.8 7.8 3.0 15.5 - - - - - - 12.6
4/22/22 60.5 1643 37.5 0634 0.00 2.00 19.69 2.4 12.5 1436 WSW | 237 0.125 0.82 518 40.4 100 38 0.00 0.00 0 2.5 0.0 100 59 0.0 0.0 10.0 10.0 4.5 0.0 - - - - - - 12.6
4/21/22 53.5 1211 40.5 0638 0.33 2.00 19.69 4.1 24.2 0115 SSW | 208 0.095 0.81 428 41.4 100 50 0.00 0.00 0 0.4 0.0 98 59 0.0 0.0 10.5 10.5 18.5 0.0 0.01 0001 0.09 0118 0.22 0131 12.6
4/20/22 55.3 1340 36.5 0337 0.25 1.67 19.36 6.6 23.5 1522 SSW | 196 0.080 0.77 371 43.9 100 67 0.00 0.00 0 0.8 0.0 97 59 0.0 0.0 6.6 6.6 15.5 0.0 0.01 0059 0.06 0056 0.11 0101 12.6
4/19/22 57.5 1713 38.9 0004 0.00 1.42 19.11 4.2 18.2 1700 SSE | 166 0.112 0.77 462 41.1 100 50 0.00 0.00 0 1.7 0.0 96 59 0.0 0.0 9.3 9.3 5.5 0.0 - - - - - - 12.6
4/18/22 58.9 1225 34.6 0511 0.14 1.42 19.11 5.1 20.5 1304 S | 177 0.086 0.78 346 42.6 98 52 0.00 0.00 0 1.6 0.0 95 59 0.0 0.0 7.4 7.4 5.0 0.0 0.01 2338 0.03 2115 0.07 2200 12.6
4/17/22 64.4 1342 33.1 0631 0.00 1.28 18.97 3.7 15.2 1418 SW | 216 0.187 0.81 695 32.3 100 10 0.00 0.00 0 4.5 0.0 93 59 0.0 0.0 10.4 10.4 4.0 0.0 - - - - - - 12.6
Max 83.1 - 49.4 - 0.33 2.00 20.00 6.6 24.2 - - 0.247 - 769 49.3 100 67 9.97 0.00 - 14.7 12.7 - - 3.0 0.0 15.9 15.2 21.0 141.4 0.01 - 0.09 - 0.22 - 12.6
Avg - - - - - 0.94 - 4.1 - - - - - - 39.9 - - 2.04 0.00 - 5.9 3.8 - - 0.1 0.0 6.8 6.7 5.3 - - - - - - - -
Min 52.4 - 30.6 - 0.00 0.00 18.97 2.4 9.5 - - 0.080 - 346 32.3 82 10 0.00 0.00 - 0.1 0.0 - - 0.0 0.0 0.0 0.0 0.0 0.0 0.01 - 0.02 - 0.03 - 12.5
Total - - - - - - - - - - - - - - - - - 61.17 0.00 - 176.6 115.4 - - 3.7 0.0 203.7 200.0 159.0 - - - - - - - -

Bell Hill-West Climate Summary

Current Yeaer

Current Year | Showing 1/1/22 - 5/16/22
as of 5/17/22 7:58 PM PDT
Temperature (°F) Max Wind Gust (mph) Precip (in) Days
Month Days Avg High Avg Low Max Min Avg Max Total Daily Min Temp < 28 Daily Min Temp < 32 Daily Max Temp > 90 Daily Max Temp > 100 Daily Rain > 0.01 Daily Rain > 0.1
Jan 2022 31 60.2 31.8 68.6 23.8 10.8 26.6 0.39 9 19 0 0 4 1
Feb 2022 28 65.7 28.6 78.2 19.5 11.9 23.2 0.08 13 22 0 0 1 0
Mar 2022 31 67.1 34.9 83.9 26 15.7 24.9 0.58 7 9 0 0 5 3
Apr 2022 30 65.9 37.3 88.5 30.8 17.6 27.2 2 0 1 0 0 6 5
May 2022 16 68.5 39.3 83.1 30.6 18.1 23.9 0.31 0 2 0 0 3 2
Total 136 - - - - - - 3.36 29 53 0 0 19 11
Average 27.2 65.1 33.9 65.1 33.9 14.5 - 0.67 5.8 10.6 0 0 3.8 2.2
Maximum 31 68.5 39.3 88.5 - - 27.2 2 13 22 0 0 6 5
Minimum 16 60.2 28.6 - 19.5 - - 0.08 0 1 0 0 1 0

Bell Hill-West Climate Summary

Last Year

Last Year | Showing 1/1/21 - 12/31/21
as of 5/17/22 7:58 PM PDT
Temperature (°F) Max Wind Gust (mph) Precip (in) Days
Month Days Avg High Avg Low Max Min Avg Max Total Daily Min Temp < 28 Daily Min Temp < 32 Daily Max Temp > 90 Daily Max Temp > 100 Daily Rain > 0.01 Daily Rain > 0.1
Jan 2021 31 56.2 33.9 74.9 20.1 13 31.3 3.55 5 12 0 0 13 5
Feb 2021 28 60.7 32.6 72.9 26.7 14.4 24.9 1.79 3 15 0 0 10 5
Mar 2021 31 61 32.2 77.4 26.6 16.5 29.2 1.87 2 17 0 0 6 5
Apr 2021 30 73 36.9 86.1 31.5 17.7 22.9 0.15 0 2 0 0 2 1
May 2021 31 80.7 44.1 101 33.8 17.9 21.2 0.01 0 0 2 1 0 0
Jun 2021 30 88.7 52.3 104.7 37.1 18.2 22.5 0 0 0 14 5 0 0
Jul 2021 31 96.4 57.5 105.9 51 16.7 20.9 0 0 0 29 7 0 0
Aug 2021 31 94.2 54.8 106.1 46.2 16.6 19.2 0 0 0 23 4 0 0
Sep 2021 30 88 49.3 99.3 38.2 15.6 24.2 0.2 0 0 16 0 3 1
Oct 2021 31 70.4 42.7 91.3 30.1 14.2 28.2 8.12 0 1 2 0 10 7
Nov 2021 30 64.5 37.2 73 27.5 8.6 17.8 1.63 1 6 0 0 7 5
Dec 2021 31 51.9 33.7 73.1 26.3 13.7 29.9 6.69 4 13 0 0 16 11
Total 365 - - - - - - 24.01 15 66 86 17 67 40
Average 30.4 73.9 42.3 73.9 42.3 15.3 - 2 1.2 5.5 7.2 1.4 5.6 3.3
Maximum 31 96.4 57.5 106.1 - - 31.3 8.12 5 17 29 7 16 11
Minimum 28 51.9 32.2 - 20.1 - - 0 0 0 0 0 0 0
Calm: 2.1%
Calm: 0.0%